createdAt,value
2018-02-18T00:02:15.349Z,14.03
2018-02-18T00:04:43.666Z,14.97
2018-02-18T00:07:11.948Z,16.77
2018-02-18T00:09:40.270Z,14.65
2018-02-18T00:12:08.512Z,13.83
2018-02-18T00:14:37.764Z,15.17
2018-02-18T00:17:06.071Z,13.30
2018-02-18T00:19:34.377Z,16.03
2018-02-18T00:22:02.680Z,13.93
2018-02-18T00:24:30.950Z,13.82
2018-02-18T00:26:59.250Z,15.60
2018-02-18T00:29:27.656Z,13.13
2018-02-18T00:31:56.010Z,13.10
2018-02-18T00:34:24.294Z,15.50
2018-02-18T00:36:52.587Z,15.30
2018-02-18T00:39:20.864Z,16.00
2018-02-18T00:41:49.166Z,17.37
2018-02-18T00:44:17.423Z,16.13
2018-02-18T00:46:45.728Z,15.33
2018-02-18T00:49:14.016Z,12.95
2018-02-18T00:51:42.328Z,14.37
2018-02-18T00:54:10.629Z,13.90
2018-02-18T00:56:38.906Z,13.70
2018-02-18T00:59:07.189Z,11.57
2018-02-18T01:01:35.453Z,14.27
2018-02-18T01:04:03.762Z,13.57
2018-02-18T01:06:32.053Z,13.80
2018-02-18T01:09:00.359Z,13.97
2018-02-18T01:11:28.672Z,17.05
2018-02-18T01:13:57.011Z,15.27
2018-02-18T01:16:25.328Z,14.30
2018-02-18T01:18:53.604Z,15.13
2018-02-18T01:21:21.926Z,14.45
2018-02-18T01:23:50.226Z,13.57
2018-02-18T01:26:18.546Z,14.70
2018-02-18T01:28:46.812Z,14.80
2018-02-18T01:31:15.143Z,14.35
2018-02-18T01:33:43.396Z,13.73
2018-02-18T01:36:11.701Z,13.85
2018-02-18T01:38:40.005Z,14.93
2018-02-18T01:41:08.299Z,14.20
2018-02-18T01:43:36.560Z,13.30
2018-02-18T01:46:05.217Z,16.15
2018-02-18T01:48:33.522Z,13.20
2018-02-18T01:51:01.872Z,13.90
2018-02-18T01:53:30.142Z,13.10
2018-02-18T01:55:58.500Z,14.20
2018-02-18T01:58:26.796Z,12.07
2018-02-18T02:00:55.111Z,13.80
2018-02-18T02:03:23.384Z,12.70
2018-02-18T02:05:51.676Z,14.90
2018-02-18T02:08:19.979Z,12.50
2018-02-18T02:10:48.258Z,13.60
2018-02-18T02:13:16.566Z,13.00
2018-02-18T02:15:45.096Z,13.27
2018-02-18T02:18:13.420Z,11.73
2018-02-18T02:20:41.707Z,12.50
2018-02-18T02:23:10.003Z,11.53
2018-02-18T02:25:38.303Z,11.60
2018-02-18T02:28:06.628Z,13.82
2018-02-18T02:30:34.898Z,11.87
2018-02-18T02:33:03.192Z,14.90
2018-02-18T02:35:31.632Z,10.40
2018-02-18T02:37:59.902Z,12.00
2018-02-18T02:40:28.369Z,12.60
2018-02-18T02:42:56.660Z,11.60
2018-02-18T02:45:24.996Z,12.17
2018-02-18T02:47:53.263Z,11.43
2018-02-18T02:50:21.556Z,11.70
2018-02-18T02:52:49.852Z,11.63
2018-02-18T02:55:18.171Z,11.80
2018-02-18T02:57:46.457Z,11.17
2018-02-18T03:00:14.755Z,11.50
2018-02-18T03:02:43.056Z,11.17
2018-02-18T03:05:11.342Z,11.37
2018-02-18T03:07:39.617Z,11.83
2018-02-18T03:10:07.932Z,10.70
2018-02-18T03:12:36.207Z,12.80
2018-02-18T03:15:05.134Z,12.33
2018-02-18T03:17:33.416Z,13.37
2018-02-18T03:20:01.707Z,11.95
2018-02-18T03:22:30.037Z,12.10
2018-02-18T03:24:58.327Z,12.17
2018-02-18T03:27:26.627Z,11.23
2018-02-18T03:29:54.915Z,12.10
2018-02-18T03:32:23.208Z,11.83
2018-02-18T03:34:51.522Z,12.10
2018-02-18T03:37:19.828Z,12.60
2018-02-18T03:39:48.099Z,10.83
2018-02-18T03:42:16.382Z,12.03
2018-02-18T03:44:44.656Z,11.23
2018-02-18T03:47:12.967Z,11.70
2018-02-18T03:49:41.565Z,12.37
2018-02-18T03:52:09.834Z,12.90
2018-02-18T03:54:38.137Z,10.90
2018-02-18T03:57:06.426Z,11.63
2018-02-18T03:59:34.738Z,10.97
2018-02-18T04:02:03.082Z,11.70
2018-02-18T04:04:31.379Z,12.60
2018-02-18T04:06:59.645Z,12.07
2018-02-18T04:09:27.932Z,12.67
2018-02-18T04:11:56.200Z,12.70
2018-02-18T04:14:24.499Z,13.47
2018-02-18T04:16:52.768Z,12.57
2018-02-18T04:19:21.062Z,13.02
2018-02-18T04:21:49.328Z,13.73
2018-02-18T04:24:18.356Z,13.05
2018-02-18T04:26:46.651Z,12.73
2018-02-18T04:29:14.919Z,12.03
2018-02-18T04:31:43.216Z,12.60
2018-02-18T04:34:11.489Z,10.60
2018-02-18T04:36:39.779Z,11.98
2018-02-18T04:39:08.056Z,11.20
2018-02-18T04:41:36.356Z,12.00
2018-02-18T04:44:05.455Z,11.32
2018-02-18T04:46:33.760Z,11.97
2018-02-18T04:49:02.071Z,11.30
2018-02-18T04:51:30.356Z,10.87
2018-02-18T04:53:58.708Z,11.02
2018-02-18T04:56:27.000Z,10.33
2018-02-18T04:58:55.331Z,9.88
2018-02-18T05:01:23.592Z,10.97
2018-02-18T05:03:51.879Z,9.67
2018-02-18T05:06:20.164Z,10.07
2018-02-18T05:08:48.466Z,10.33
2018-02-18T05:11:16.728Z,11.03
2018-02-18T05:13:45.016Z,10.87
2018-02-18T05:16:13.291Z,10.85
2018-02-18T05:18:41.582Z,12.60
2018-02-18T05:21:09.845Z,12.15
2018-02-18T05:23:38.152Z,11.10
2018-02-18T05:26:06.488Z,9.37
2018-02-18T05:28:35.606Z,10.97
2018-02-18T05:31:03.904Z,10.80
2018-02-18T05:33:32.178Z,9.10
2018-02-18T05:36:00.464Z,8.30
2018-02-18T05:38:28.720Z,9.00
2018-02-18T05:40:57.021Z,8.80
2018-02-18T05:43:25.272Z,8.50
2018-02-18T05:45:53.579Z,8.17
2018-02-18T05:48:21.838Z,9.15
2018-02-18T05:50:50.099Z,8.20
2018-02-18T05:53:18.391Z,8.03
2018-02-18T05:55:46.654Z,8.73
2018-02-18T05:58:14.977Z,8.50
2018-02-18T06:00:43.244Z,8.20
2018-02-18T06:03:11.531Z,8.83
2018-02-18T06:05:39.791Z,8.80
2018-02-18T06:08:08.099Z,7.87
2018-02-18T06:10:36.380Z,7.90
2018-02-18T06:13:05.020Z,8.10
2018-02-18T06:15:33.292Z,8.07
2018-02-18T06:18:01.568Z,8.27
2018-02-18T06:20:29.860Z,8.50
2018-02-18T06:22:58.143Z,7.53
2018-02-18T06:25:26.481Z,8.63
2018-02-18T06:27:54.734Z,8.70
2018-02-18T06:30:22.995Z,7.45
2018-02-18T06:32:51.292Z,8.03
2018-02-18T06:35:19.582Z,7.78
2018-02-18T06:37:47.840Z,8.97
2018-02-18T06:40:16.309Z,8.20
2018-02-18T06:42:44.597Z,8.23
2018-02-18T06:45:12.862Z,7.60
2018-02-18T06:47:41.168Z,7.93
2018-02-18T06:50:09.442Z,7.40
2018-02-18T06:52:37.740Z,7.77
2018-02-18T06:55:06.041Z,8.43
2018-02-18T06:57:34.315Z,7.53
2018-02-18T07:00:02.607Z,8.03
2018-02-18T07:02:30.918Z,8.57
2018-02-18T07:04:59.223Z,7.60
2018-02-18T07:07:27.531Z,7.55
2018-02-18T07:09:55.827Z,8.60
2018-02-18T07:12:24.098Z,8.83
2018-02-18T07:14:52.707Z,8.37
2018-02-18T07:17:20.982Z,8.60
2018-02-18T07:19:49.287Z,9.03
2018-02-18T07:22:17.552Z,9.02
2018-02-18T07:24:45.824Z,9.87
2018-02-18T07:27:14.163Z,11.23
2018-02-18T07:29:42.453Z,9.53
2018-02-18T07:32:10.753Z,8.63
2018-02-18T07:34:39.032Z,8.43
2018-02-18T07:37:07.315Z,8.47
2018-02-18T07:39:35.587Z,8.60
2018-02-18T07:42:04.963Z,8.50
2018-02-18T07:44:33.248Z,7.97
2018-02-18T07:47:01.540Z,8.17
2018-02-18T07:49:29.113Z,7.70
2018-02-18T07:51:57.212Z,8.23
2018-02-18T07:54:25.595Z,8.67
2018-02-18T07:56:53.877Z,8.80
2018-02-18T07:59:22.179Z,9.07
2018-02-18T08:01:50.475Z,9.70
2018-02-18T08:04:18.784Z,8.85
2018-02-18T08:06:46.354Z,8.10
2018-02-18T08:09:14.444Z,8.32
2018-02-18T08:11:42.719Z,9.17
2018-02-18T08:14:11.030Z,9.15
2018-02-18T08:16:39.305Z,8.50
2018-02-18T08:19:07.616Z,10.43
2018-02-18T08:21:35.879Z,9.00
2018-02-18T08:24:04.994Z,9.02
2018-02-18T08:26:33.251Z,9.57
2018-02-18T08:29:01.556Z,10.03
2018-02-18T08:31:29.852Z,9.20
2018-02-18T08:33:58.165Z,10.27
2018-02-18T08:36:26.442Z,10.27
2018-02-18T08:38:54.723Z,9.27
2018-02-18T08:41:23.014Z,10.60
2018-02-18T08:43:51.284Z,10.10
2018-02-18T08:46:19.625Z,10.27
2018-02-18T08:48:47.901Z,10.13
2018-02-18T08:51:16.203Z,12.87
2018-02-18T08:53:44.480Z,11.00
2018-02-18T08:56:12.804Z,10.13
2018-02-18T08:58:41.108Z,10.23
2018-02-18T09:01:09.373Z,11.27
2018-02-18T09:03:37.682Z,11.03
2018-02-18T09:06:05.962Z,10.85
2018-02-18T09:08:34.257Z,11.10
2018-02-18T09:11:02.523Z,12.73
2018-02-18T09:13:30.871Z,10.30
2018-02-18T09:15:59.163Z,10.53
2018-02-18T09:18:27.704Z,12.53
2018-02-18T09:20:56.076Z,12.40
2018-02-18T09:23:24.368Z,11.93
2018-02-18T09:25:52.728Z,12.17
2018-02-18T09:28:21.130Z,13.57
2018-02-18T09:30:49.486Z,14.97
2018-02-18T09:33:17.919Z,15.35
2018-02-18T09:35:46.292Z,14.57
2018-02-18T09:38:14.569Z,14.48
2018-02-18T09:40:42.892Z,13.97
2018-02-18T09:43:11.281Z,16.37
2018-02-18T09:45:39.596Z,15.97
2018-02-18T09:48:07.852Z,16.30
2018-02-18T09:50:36.134Z,17.98
2018-02-18T09:53:05.152Z,18.08
2018-02-18T09:55:34.152Z,18.30
2018-02-18T09:58:02.451Z,18.97
2018-02-18T10:00:30.762Z,20.00
2018-02-18T10:02:59.039Z,18.87
2018-02-18T10:05:27.352Z,19.27
2018-02-18T10:07:55.669Z,19.20
2018-02-18T10:10:23.972Z,18.53
2018-02-18T10:12:52.288Z,20.50
2018-02-18T10:15:20.559Z,19.63
2018-02-18T10:17:48.868Z,19.17
2018-02-18T10:20:17.190Z,18.40
2018-02-18T10:22:45.485Z,19.60
2018-02-18T10:25:13.851Z,18.00
2018-02-18T10:27:42.089Z,20.70
2018-02-18T10:30:10.384Z,19.40
2018-02-18T10:32:39.487Z,18.73
2018-02-18T10:35:07.831Z,20.57
2018-02-18T10:37:36.076Z,18.30
2018-02-18T10:40:04.387Z,19.30
2018-02-18T10:42:32.688Z,20.40
2018-02-18T10:45:01.008Z,20.20
2018-02-18T10:47:30.079Z,19.73
2018-02-18T10:49:58.353Z,17.30
2018-02-18T10:52:26.697Z,20.20
2018-02-18T10:54:54.934Z,19.33
2018-02-18T10:57:23.205Z,20.10
2018-02-18T10:59:51.544Z,19.50
2018-02-18T11:02:19.839Z,18.87
2018-02-18T11:04:48.127Z,18.27
2018-02-18T11:07:16.396Z,19.42
2018-02-18T11:09:44.776Z,19.90
2018-02-18T11:12:13.048Z,19.20
2018-02-18T11:14:41.296Z,18.30
2018-02-18T11:17:09.623Z,18.17
2018-02-18T11:19:37.936Z,19.40
2018-02-18T11:22:06.228Z,18.07
2018-02-18T11:24:34.499Z,15.33
2018-02-18T11:27:02.793Z,16.57
2018-02-18T11:29:31.056Z,18.20
2018-02-18T11:31:59.350Z,17.20
2018-02-18T11:34:27.737Z,17.97
2018-02-18T11:36:56.020Z,18.37
2018-02-18T11:39:24.300Z,19.67
2018-02-18T11:41:52.643Z,18.70
2018-02-18T11:44:20.918Z,16.50
2018-02-18T11:46:49.216Z,17.43
2018-02-18T11:49:17.536Z,17.77
2018-02-18T11:51:45.844Z,18.20
2018-02-18T11:54:14.160Z,17.65
2018-02-18T11:56:42.437Z,18.40
2018-02-18T11:59:10.808Z,19.00
2018-02-18T12:01:39.108Z,16.97
2018-02-18T12:04:07.468Z,17.83
2018-02-18T12:06:36.579Z,17.15
2018-02-18T12:09:05.361Z,17.62
2018-02-18T12:11:33.741Z,17.40
2018-02-18T12:14:01.985Z,17.70
2018-02-18T12:16:30.347Z,18.20
2018-02-18T12:18:58.656Z,16.93
2018-02-18T12:21:26.939Z,18.10
2018-02-18T12:23:55.246Z,16.03
2018-02-18T12:26:23.580Z,15.47
2018-02-18T12:28:51.847Z,16.50
2018-02-18T12:31:20.192Z,15.57
2018-02-18T12:33:48.520Z,15.35
2018-02-18T12:36:16.814Z,15.85
2018-02-18T12:38:45.071Z,14.87
2018-02-18T12:41:13.453Z,15.20
2018-02-18T12:43:41.732Z,16.10
2018-02-18T12:46:10.032Z,15.10
2018-02-18T12:48:38.349Z,16.37
2018-02-18T12:51:06.639Z,17.43
2018-02-18T12:53:34.952Z,15.97
2018-02-18T12:56:03.249Z,15.17
2018-02-18T12:58:31.586Z,15.73
2018-02-18T13:00:59.875Z,14.97
2018-02-18T13:03:28.232Z,16.10
2018-02-18T13:05:56.549Z,14.50
2018-02-18T13:08:24.958Z,16.90
2018-02-18T13:10:53.266Z,13.90
2018-02-18T13:13:21.559Z,15.15
2018-02-18T13:15:49.899Z,14.83
2018-02-18T13:18:18.277Z,14.00
2018-02-18T13:20:46.625Z,14.80
2018-02-18T13:23:14.953Z,14.50
2018-02-18T13:25:43.292Z,14.30
2018-02-18T13:28:11.658Z,14.43
2018-02-18T13:30:40.427Z,12.33
2018-02-18T13:33:08.890Z,13.68
2018-02-18T13:35:37.241Z,14.00
2018-02-18T13:38:05.670Z,13.20
2018-02-18T13:40:33.989Z,12.53
2018-02-18T13:43:02.334Z,13.68
2018-02-18T13:45:30.730Z,12.40
2018-02-18T13:47:59.866Z,12.80
2018-02-18T13:50:28.160Z,12.37
2018-02-18T13:52:56.484Z,12.87
2018-02-18T13:55:24.816Z,13.30
2018-02-18T13:57:53.093Z,13.17
2018-02-18T14:00:21.405Z,13.77
2018-02-18T14:02:49.692Z,13.60
2018-02-18T14:05:18.011Z,13.00
2018-02-18T14:07:46.330Z,12.97
2018-02-18T14:10:14.631Z,13.75
2018-02-18T14:12:42.951Z,14.53
2018-02-18T14:15:11.268Z,13.80
2018-02-18T14:17:39.544Z,13.83
2018-02-18T14:20:07.899Z,14.07
2018-02-18T14:22:36.248Z,14.45
2018-02-18T14:25:04.572Z,13.10
2018-02-18T14:27:32.909Z,13.60
2018-02-18T14:30:01.261Z,11.90
2018-02-18T14:32:29.999Z,11.93
2018-02-18T14:34:58.323Z,12.30
2018-02-18T14:37:26.655Z,12.47
2018-02-18T14:39:54.928Z,12.50
2018-02-18T14:42:34.904Z,13.07
2018-02-18T14:45:15.048Z,13.20
2018-02-18T14:50:56.468Z,13.00
2018-02-18T14:53:36.563Z,13.07
2018-02-18T14:59:09.699Z,13.90
2018-02-18T15:01:38.084Z,12.70
2018-02-18T15:04:06.941Z,14.17
2018-02-18T15:06:35.227Z,13.07
2018-02-18T15:09:03.611Z,13.00
2018-02-18T15:11:31.899Z,13.40
2018-02-18T15:14:00.197Z,14.10
2018-02-18T15:16:28.498Z,12.97
2018-02-18T15:18:56.849Z,15.17
2018-02-18T15:21:25.157Z,13.90
2018-02-18T15:23:53.436Z,14.17
2018-02-18T15:26:21.740Z,14.07
2018-02-18T15:28:50.027Z,14.70
2018-02-18T15:31:18.323Z,14.77
2018-02-18T15:33:46.660Z,14.37
2018-02-18T15:36:14.989Z,14.35
2018-02-18T15:38:43.268Z,14.23
2018-02-18T15:41:11.620Z,14.77
2018-02-18T15:43:39.924Z,15.60
2018-02-18T15:46:08.220Z,15.07
2018-02-18T15:48:36.518Z,14.73
2018-02-18T15:51:04.822Z,16.27
2018-02-18T15:53:33.149Z,16.40
2018-02-18T15:56:01.428Z,16.10
2018-02-18T15:58:29.759Z,16.20
2018-02-18T16:00:58.056Z,14.67
2018-02-18T16:03:27.222Z,14.60
2018-02-18T16:05:55.500Z,15.43
2018-02-18T16:08:23.865Z,16.10
2018-02-18T16:10:52.175Z,15.60
2018-02-18T16:13:20.446Z,16.25
2018-02-18T16:15:48.813Z,15.23
2018-02-18T16:18:18.131Z,16.37
2018-02-18T16:20:46.459Z,15.90
2018-02-18T16:23:14.876Z,16.55
2018-02-18T16:25:43.242Z,16.30
2018-02-18T16:28:11.728Z,16.40
2018-02-18T16:30:40.138Z,16.93
2018-02-18T16:33:08.414Z,16.70
2018-02-18T16:35:37.671Z,16.37
2018-02-18T16:38:05.996Z,16.70
2018-02-18T16:40:34.319Z,16.40
2018-02-18T16:43:02.920Z,18.00
2018-02-18T16:45:31.209Z,16.83
2018-02-18T16:48:00.307Z,17.90
2018-02-18T16:50:28.601Z,16.47
2018-02-18T16:52:57.363Z,16.83
2018-02-18T16:55:26.402Z,17.10
2018-02-18T16:57:54.741Z,19.23
2018-02-18T17:00:23.001Z,17.53
2018-02-18T17:02:51.922Z,17.80
2018-02-18T17:05:20.283Z,16.20
2018-02-18T17:07:48.593Z,18.27
2018-02-18T17:10:16.894Z,17.40
2018-02-18T17:12:45.203Z,18.70
2018-02-18T17:15:13.485Z,17.93
2018-02-18T17:17:41.803Z,17.93
2018-02-18T17:20:10.116Z,18.10
2018-02-18T17:22:38.458Z,18.37
2018-02-18T17:25:06.875Z,17.67
2018-02-18T17:27:35.151Z,17.60
2018-02-18T17:30:04.083Z,18.20
2018-02-18T17:32:32.490Z,17.80
2018-02-18T17:35:00.811Z,18.40
2018-02-18T17:37:29.148Z,20.27
2018-02-18T17:39:57.460Z,19.17
2018-02-18T17:42:25.756Z,18.70
2018-02-18T17:44:54.100Z,17.40
2018-02-18T17:47:22.485Z,18.50
2018-02-18T17:49:50.972Z,17.80
2018-02-18T17:52:19.336Z,17.30
2018-02-18T17:54:47.687Z,18.40
2018-02-18T17:57:16.091Z,18.27
2018-02-18T17:59:44.377Z,18.23
2018-02-18T18:02:12.717Z,18.00
2018-02-18T18:04:41.085Z,18.43
2018-02-18T18:07:09.347Z,18.33
2018-02-18T18:09:37.698Z,18.30
2018-02-18T18:12:05.960Z,19.60
2018-02-18T18:14:34.257Z,19.27
2018-02-18T18:17:02.523Z,18.57
2018-02-18T18:19:30.807Z,18.47
2018-02-18T18:21:59.080Z,17.67
2018-02-18T18:24:27.372Z,18.43
2018-02-18T18:26:55.631Z,17.47
2018-02-18T18:29:23.920Z,21.70
2018-02-18T18:31:52.242Z,19.57
2018-02-18T18:34:20.521Z,18.47
2018-02-18T18:36:48.822Z,17.93
2018-02-18T18:39:17.161Z,16.40
2018-02-18T18:41:45.474Z,17.67
2018-02-18T18:44:13.756Z,17.93
2018-02-18T18:46:42.055Z,17.67
2018-02-18T18:49:10.339Z,17.43
2018-02-18T18:51:38.735Z,17.97
2018-02-18T18:54:06.990Z,17.23
2018-02-18T18:56:35.293Z,18.10
2018-02-18T18:59:03.922Z,17.53
2018-02-18T19:01:32.198Z,17.20
2018-02-18T19:04:00.487Z,17.43
2018-02-18T19:06:28.749Z,18.30
2018-02-18T19:08:57.040Z,16.53
2018-02-18T19:11:25.316Z,17.00
2018-02-18T19:13:53.600Z,15.40
2018-02-18T19:16:21.861Z,15.80
2018-02-18T19:18:50.193Z,15.67
2018-02-18T19:21:18.509Z,14.60
2018-02-18T19:23:46.780Z,15.40
2018-02-18T19:26:15.060Z,15.63
2018-02-18T19:28:43.356Z,14.43
2018-02-18T19:31:11.658Z,15.20
2018-02-18T19:33:39.941Z,13.90
2018-02-18T19:36:08.188Z,14.33
2018-02-18T19:38:36.439Z,15.50
2018-02-18T19:41:04.737Z,16.67
2018-02-18T19:43:33.000Z,15.53
2018-02-18T19:46:01.321Z,14.53
2018-02-18T19:48:29.588Z,15.60
2018-02-18T19:50:57.891Z,16.57
2018-02-18T19:53:26.199Z,15.43
2018-02-18T19:55:54.491Z,15.20
2018-02-18T19:58:22.770Z,15.30
2018-02-18T20:00:51.078Z,15.80
2018-02-18T20:03:19.350Z,12.50
2018-02-18T20:05:47.686Z,13.73
2018-02-18T20:08:15.971Z,14.83
2018-02-18T20:10:44.256Z,13.97
2018-02-18T20:13:12.559Z,13.90
2018-02-18T20:15:40.816Z,12.73
2018-02-18T20:18:09.117Z,11.90
2018-02-18T20:20:37.403Z,14.37
2018-02-18T20:23:05.694Z,12.43
2018-02-18T20:25:33.980Z,12.60
2018-02-18T20:28:02.280Z,13.47
2018-02-18T20:30:30.587Z,13.80
2018-02-18T20:32:58.865Z,13.97
2018-02-18T20:35:27.124Z,12.17
2018-02-18T20:37:55.422Z,12.30
2018-02-18T20:40:23.683Z,14.20
2018-02-18T20:42:51.971Z,12.27
2018-02-18T20:45:20.233Z,13.00
2018-02-18T20:47:48.530Z,12.33
2018-02-18T20:50:16.820Z,13.23
2018-02-18T20:52:45.129Z,14.47
2018-02-18T20:55:13.415Z,14.20
2018-02-18T20:57:41.700Z,13.20
2018-02-18T21:00:09.981Z,13.17
2018-02-18T21:02:38.348Z,12.63
2018-02-18T21:05:06.612Z,12.80
2018-02-18T21:07:34.872Z,13.20
2018-02-18T21:10:03.182Z,13.90
2018-02-18T21:12:31.451Z,13.23
2018-02-18T21:14:59.905Z,12.73
2018-02-18T21:17:28.246Z,11.93
2018-02-18T21:19:56.582Z,13.60
2018-02-18T21:22:24.860Z,14.73
2018-02-18T21:24:53.198Z,13.57
2018-02-18T21:27:21.511Z,12.73
2018-02-18T21:29:49.774Z,14.60
2018-02-18T21:32:18.068Z,13.87
2018-02-18T21:34:46.336Z,14.97
2018-02-18T21:37:14.944Z,15.00
2018-02-18T21:39:43.203Z,13.83
2018-02-18T21:42:11.500Z,15.77
2018-02-18T21:44:39.761Z,15.93
2018-02-18T21:47:08.054Z,14.60
2018-02-18T21:49:36.325Z,15.30
2018-02-18T21:52:04.606Z,15.37
2018-02-18T21:54:32.862Z,13.50
2018-02-18T21:57:01.171Z,14.63
2018-02-18T21:59:29.480Z,14.20
2018-02-18T22:01:57.771Z,15.33
2018-02-18T22:04:26.100Z,15.93
2018-02-18T22:06:54.367Z,14.93
2018-02-18T22:09:22.684Z,15.07
2018-02-18T22:11:50.925Z,15.30
2018-02-18T22:14:19.212Z,14.67
2018-02-18T22:16:47.496Z,14.87
2018-02-18T22:19:15.779Z,15.10
2018-02-18T22:21:44.067Z,15.20
2018-02-18T22:24:12.360Z,15.90
2018-02-18T22:26:40.643Z,14.77
2018-02-18T22:29:08.937Z,14.70
2018-02-18T22:31:37.204Z,15.77
2018-02-18T22:34:05.483Z,15.97
2018-02-18T22:36:33.750Z,14.60
2018-02-18T22:39:02.032Z,7.40
2018-02-18T22:41:30.295Z,11.00
2018-02-18T22:43:58.587Z,12.03
2018-02-18T22:46:26.896Z,13.27
2018-02-18T22:48:55.175Z,13.80
2018-02-18T22:51:23.481Z,13.40
2018-02-18T22:53:52.086Z,13.40
2018-02-18T22:56:20.383Z,15.83
2018-02-18T22:58:48.704Z,17.00
2018-02-18T23:01:16.936Z,17.80
2018-02-18T23:03:45.289Z,17.40
2018-02-18T23:06:13.504Z,15.90
2018-02-18T23:08:41.813Z,16.65
2018-02-18T23:11:10.128Z,16.52
2018-02-18T23:13:38.406Z,16.97
2018-02-18T23:16:06.724Z,16.10
2018-02-18T23:18:34.987Z,15.87
2018-02-18T23:21:09.324Z,15.40
2018-02-18T23:23:37.568Z,14.93
2018-02-18T23:26:05.851Z,14.48
2018-02-18T23:28:34.205Z,14.30
2018-02-18T23:31:02.538Z,14.53
2018-02-18T23:33:30.874Z,13.03
2018-02-18T23:35:59.136Z,13.23
2018-02-18T23:38:27.466Z,13.80
2018-02-18T23:40:55.748Z,14.07
2018-02-18T23:43:24.086Z,13.80
2018-02-18T23:45:52.394Z,13.40
2018-02-18T23:48:20.726Z,13.30
2018-02-18T23:50:49.103Z,14.47
2018-02-18T23:53:17.384Z,14.20
2018-02-18T23:55:45.756Z,15.27
2018-02-18T23:58:14.037Z,12.57
